sensor_id;sensor_type;location;lat;lon;timestamp;pressure;altitude;pressure_sealevel;temperature;humidity
50105;BME280;47690;39.202;-77.198;2023-04-02T00:01:25;98495.19;;;42.32;8.56
50105;BME280;47690;39.202;-77.198;2023-04-02T00:04:05;98505.56;;;41.94;8.37
50105;BME280;47690;39.202;-77.198;2023-04-02T00:07:30;98512.06;;;41.62;8.36
50105;BME280;47690;39.202;-77.198;2023-04-02T00:10:01;98545.56;;;41.40;8.54
50105;BME280;47690;39.202;-77.198;2023-04-02T00:12:38;98551.16;;;40.97;8.51
50105;BME280;47690;39.202;-77.198;2023-04-02T00:15:11;98570.59;;;41.04;8.91
50105;BME280;47690;39.202;-77.198;2023-04-02T00:17:41;98609.66;;;40.81;8.96
50105;BME280;47690;39.202;-77.198;2023-04-02T00:20:15;98606.16;;;40.86;8.95
50105;BME280;47690;39.202;-77.198;2023-04-02T00:22:48;98620.06;;;40.62;9.00
50105;BME280;47690;39.202;-77.198;2023-04-02T00:25:18;98648.88;;;40.51;8.82
50105;BME280;47690;39.202;-77.198;2023-04-02T00:27:51;98645.38;;;40.55;8.75
50105;BME280;47690;39.202;-77.198;2023-04-02T00:30:21;98651.94;;;40.27;8.72
50105;BME280;47690;39.202;-77.198;2023-04-02T00:32:53;98666.44;;;40.21;9.03
50105;BME280;47690;39.202;-77.198;2023-04-02T00:35:27;98706.09;;;40.20;8.90
50105;BME280;47690;39.202;-77.198;2023-04-02T00:38:01;98678.25;;;40.09;8.82
50105;BME280;47690;39.202;-77.198;2023-04-02T00:40:31;98721.47;;;39.92;8.87
50105;BME280;47690;39.202;-77.198;2023-04-02T00:43:05;98750.47;;;39.85;8.79
50105;BME280;47690;39.202;-77.198;2023-04-02T00:45:39;98719.88;;;39.69;8.92
50105;BME280;47690;39.202;-77.198;2023-04-02T00:48:45;98716.53;;;40.11;9.09
50105;BME280;47690;39.202;-77.198;2023-04-02T00:52:20;98676.25;;;39.99;8.75
50105;BME280;47690;39.202;-77.198;2023-04-02T00:54:28;98695.13;;;39.72;9.20
50105;BME280;47690;39.202;-77.198;2023-04-02T00:57:02;98706.47;;;39.29;9.40
50105;BME280;47690;39.202;-77.198;2023-04-02T01:02:40;98678.50;;;40.40;8.64
50105;BME280;47690;39.202;-77.198;2023-04-02T01:13:32;98739.28;;;39.71;9.29
50105;BME280;47690;39.202;-77.198;2023-04-02T01:16:51;98755.56;;;39.81;9.01
50105;BME280;47690;39.202;-77.198;2023-04-02T01:19:59;98759.88;;;39.55;8.97
50105;BME280;47690;39.202;-77.198;2023-04-02T01:23:03;98768.25;;;39.58;8.96
50105;BME280;47690;39.202;-77.198;2023-04-02T01:26:03;98788.44;;;39.39;8.77
50105;BME280;47690;39.202;-77.198;2023-04-02T01:29:05;98803.41;;;39.29;8.68
50105;BME280;47690;39.202;-77.198;2023-04-02T01:31:36;98808.22;;;39.67;8.42
50105;BME280;47690;39.202;-77.198;2023-04-02T01:34:13;98815.16;;;38.72;8.81
50105;BME280;47690;39.202;-77.198;2023-04-02T01:37:04;98816.50;;;38.69;8.37
50105;BME280;47690;39.202;-77.198;2023-04-02T01:40:06;98820.06;;;38.58;8.56
50105;BME280;47690;39.202;-77.198;2023-04-02T01:45:44;98845.44;;;38.33;8.96
50105;BME280;47690;39.202;-77.198;2023-04-02T01:48:17;98855.31;;;38.15;9.00
50105;BME280;47690;39.202;-77.198;2023-04-02T01:50:52;98870.38;;;38.16;8.81
50105;BME280;47690;39.202;-77.198;2023-04-02T01:53:32;98884.03;;;38.26;9.00
50105;BME280;47690;39.202;-77.198;2023-04-02T01:56:04;98934.41;;;38.31;8.92
50105;BME280;47690;39.202;-77.198;2023-04-02T01:58:37;98940.53;;;38.03;8.83
50105;BME280;47690;39.202;-77.198;2023-04-02T02:01:17;98971.97;;;37.78;8.34
50105;BME280;47690;39.202;-77.198;2023-04-02T02:03:52;98934.81;;;37.75;8.60
50105;BME280;47690;39.202;-77.198;2023-04-02T02:06:24;98996.88;;;37.19;8.82
50105;BME280;47690;39.202;-77.198;2023-04-02T02:09:04;99011.53;;;37.47;8.24
50105;BME280;47690;39.202;-77.198;2023-04-02T02:11:40;99013.09;;;36.94;8.99
50105;BME280;47690;39.202;-77.198;2023-04-02T02:14:22;99033.31;;;36.77;8.51
50105;BME280;47690;39.202;-77.198;2023-04-02T02:16:58;99029.03;;;37.07;8.55
50105;BME280;47690;39.202;-77.198;2023-04-02T02:19:37;99040.84;;;36.69;8.71
50105;BME280;47690;39.202;-77.198;2023-04-02T02:22:32;99042.19;;;36.78;8.67
50105;BME280;47690;39.202;-77.198;2023-04-02T02:25:26;99044.56;;;36.86;9.01
50105;BME280;47690;39.202;-77.198;2023-04-02T02:28:30;99043.19;;;36.96;9.13
50105;BME280;47690;39.202;-77.198;2023-04-02T02:31:05;99045.97;;;36.89;8.73
50105;BME280;47690;39.202;-77.198;2023-04-02T02:33:46;99051.56;;;36.87;9.26
50105;BME280;47690;39.202;-77.198;2023-04-02T02:36:34;99045.13;;;36.88;9.11
50105;BME280;47690;39.202;-77.198;2023-04-02T02:39:37;99045.56;;;37.04;8.68
50105;BME280;47690;39.202;-77.198;2023-04-02T02:42:35;99056.75;;;37.31;8.29
50105;BME280;47690;39.202;-77.198;2023-04-02T02:45:14;99062.41;;;37.11;8.67
50105;BME280;47690;39.202;-77.198;2023-04-02T02:47:56;99086.84;;;37.03;8.87
50105;BME280;47690;39.202;-77.198;2023-04-02T02:50:32;99109.06;;;37.71;8.27
50105;BME280;47690;39.202;-77.198;2023-04-02T02:53:35;99089.91;;;37.07;8.14
50105;BME280;47690;39.202;-77.198;2023-04-02T02:56:16;99097.69;;;36.59;8.86
50105;BME280;47690;39.202;-77.198;2023-04-02T02:58:52;99098.47;;;36.41;8.91
50105;BME280;47690;39.202;-77.198;2023-04-02T03:01:33;99124.16;;;36.30;9.07
50105;BME280;47690;39.202;-77.198;2023-04-02T03:04:20;99142.84;;;36.81;8.75
50105;BME280;47690;39.202;-77.198;2023-04-02T03:06:57;99142.66;;;36.31;8.89
50105;BME280;47690;39.202;-77.198;2023-04-02T03:12:31;99162.56;;;36.23;8.97
50105;BME280;47690;39.202;-77.198;2023-04-02T03:20:47;99154.72;;;36.22;8.73
50105;BME280;47690;39.202;-77.198;2023-04-02T03:23:32;99170.75;;;36.29;9.12
50105;BME280;47690;39.202;-77.198;2023-04-02T03:26:14;99171.28;;;36.38;8.38
50105;BME280;47690;39.202;-77.198;2023-04-02T03:31:49;99154.69;;;36.29;8.68
50105;BME280;47690;39.202;-77.198;2023-04-02T03:34:38;99178.25;;;36.20;8.40
50105;BME280;47690;39.202;-77.198;2023-04-02T03:37:21;99159.38;;;36.01;8.49
50105;BME280;47690;39.202;-77.198;2023-04-02T03:40:17;99184.72;;;36.05;8.84
50105;BME280;47690;39.202;-77.198;2023-04-02T03:42:51;99181.66;;;36.97;7.70
50105;BME280;47690;39.202;-77.198;2023-04-02T03:45:27;99187.59;;;36.11;8.55
50105;BME280;47690;39.202;-77.198;2023-04-02T03:48:07;99182.34;;;35.90;8.98
50105;BME280;47690;39.202;-77.198;2023-04-02T03:53:25;99204.75;;;35.57;8.89
50105;BME280;47690;39.202;-77.198;2023-04-02T03:56:34;99224.41;;;35.90;8.78
50105;BME280;47690;39.202;-77.198;2023-04-02T03:59:43;99229.00;;;35.76;8.79
50105;BME280;47690;39.202;-77.198;2023-04-02T04:05:17;99238.97;;;35.55;9.01
50105;BME280;47690;39.202;-77.198;2023-04-02T04:08:21;99220.78;;;35.71;9.07
50105;BME280;47690;39.202;-77.198;2023-04-02T04:11:01;99216.13;;;35.91;8.89
50105;BME280;47690;39.202;-77.198;2023-04-02T04:13:55;99197.63;;;35.83;8.70
50105;BME280;47690;39.202;-77.198;2023-04-02T04:16:46;99201.81;;;36.36;8.43
50105;BME280;47690;39.202;-77.198;2023-04-02T04:19:37;99202.09;;;35.96;8.49
50105;BME280;47690;39.202;-77.198;2023-04-02T04:22:22;99188.19;;;35.80;8.64
50105;BME280;47690;39.202;-77.198;2023-04-02T04:25:23;99190.03;;;36.12;8.55
50105;BME280;47690;39.202;-77.198;2023-04-02T04:30:52;99212.38;;;35.60;8.61
50105;BME280;47690;39.202;-77.198;2023-04-02T04:33:46;99256.47;;;35.51;8.67
50105;BME280;47690;39.202;-77.198;2023-04-02T04:36:27;99264.34;;;35.39;8.85
50105;BME280;47690;39.202;-77.198;2023-04-02T04:39:10;99287.00;;;36.92;7.49
50105;BME280;47690;39.202;-77.198;2023-04-02T04:41:53;99294.09;;;36.54;8.32
50105;BME280;47690;39.202;-77.198;2023-04-02T04:44:55;99320.50;;;36.83;8.06
50105;BME280;47690;39.202;-77.198;2023-04-02T04:47:56;99307.47;;;37.12;7.90
50105;BME280;47690;39.202;-77.198;2023-04-02T04:50:57;99309.63;;;36.06;8.14
50105;BME280;47690;39.202;-77.198;2023-04-02T04:53:46;99296.97;;;35.75;8.76
50105;BME280;47690;39.202;-77.198;2023-04-02T04:56:26;99290.25;;;36.75;8.32
50105;BME280;47690;39.202;-77.198;2023-04-02T05:04:42;99264.34;;;35.39;8.78
50105;BME280;47690;39.202;-77.198;2023-04-02T05:07:34;99306.56;;;35.37;8.80
50105;BME280;47690;39.202;-77.198;2023-04-02T05:10:40;99308.09;;;35.78;8.46
50105;BME280;47690;39.202;-77.198;2023-04-02T05:13:27;99322.41;;;36.04;8.37
50105;BME280;47690;39.202;-77.198;2023-04-02T05:16:20;99345.69;;;35.31;8.66
50105;BME280;47690;39.202;-77.198;2023-04-02T05:21:54;99373.91;;;35.40;8.75
50105;BME280;47690;39.202;-77.198;2023-04-02T05:24:42;99366.69;;;35.41;8.93
50105;BME280;47690;39.202;-77.198;2023-04-02T05:27:27;99367.09;;;35.45;8.85
50105;BME280;47690;39.202;-77.198;2023-04-02T05:33:29;99380.25;;;35.66;9.02
50105;BME280;47690;39.202;-77.198;2023-04-02T05:36:10;99398.41;;;35.44;8.94
50105;BME280;47690;39.202;-77.198;2023-04-02T05:38:49;99385.25;;;35.22;9.05
50105;BME280;47690;39.202;-77.198;2023-04-02T05:41:45;99388.06;;;35.54;8.81
50105;BME280;47690;39.202;-77.198;2023-04-02T05:44:38;99398.34;;;35.85;8.63
50105;BME280;47690;39.202;-77.198;2023-04-02T05:47:23;99403.53;;;35.39;8.78
50105;BME280;47690;39.202;-77.198;2023-04-02T05:50:10;99396.75;;;35.50;8.78
50105;BME280;47690;39.202;-77.198;2023-04-02T05:53:05;99415.69;;;35.48;8.95
50105;BME280;47690;39.202;-77.198;2023-04-02T05:58:41;99460.81;;;35.18;9.19
50105;BME280;47690;39.202;-77.198;2023-04-02T06:01:39;99444.13;;;35.29;8.92
50105;BME280;47690;39.202;-77.198;2023-04-02T06:04:55;99464.50;;;35.37;8.93
50105;BME280;47690;39.202;-77.198;2023-04-02T06:07:57;99474.59;;;35.68;8.66
50105;BME280;47690;39.202;-77.198;2023-04-02T06:10:54;99460.78;;;35.38;8.67
50105;BME280;47690;39.202;-77.198;2023-04-02T06:13:32;99479.06;;;35.00;9.06
50105;BME280;47690;39.202;-77.198;2023-04-02T06:16:06;99470.81;;;34.95;9.10
50105;BME280;47690;39.202;-77.198;2023-04-02T06:18:37;99479.03;;;34.94;9.15
50105;BME280;47690;39.202;-77.198;2023-04-02T06:21:13;99479.13;;;35.54;9.01
50105;BME280;47690;39.202;-77.198;2023-04-02T06:24:12;99478.66;;;36.71;7.92
50105;BME280;47690;39.202;-77.198;2023-04-02T06:27:13;99480.34;;;35.52;8.78
50105;BME280;47690;39.202;-77.198;2023-04-02T06:30:03;99483.44;;;35.42;8.85
50105;BME280;47690;39.202;-77.198;2023-04-02T06:32:38;99484.88;;;35.18;9.01
50105;BME280;47690;39.202;-77.198;2023-04-02T06:35:16;99483.03;;;35.11;9.17
50105;BME280;47690;39.202;-77.198;2023-04-02T06:37:58;99494.06;;;34.95;9.14
50105;BME280;47690;39.202;-77.198;2023-04-02T06:40:39;99497.94;;;34.79;9.22
50105;BME280;47690;39.202;-77.198;2023-04-02T06:46:41;99465.66;;;34.31;9.37
50105;BME280;47690;39.202;-77.198;2023-04-02T06:49:43;99463.13;;;34.72;9.15
50105;BME280;47690;39.202;-77.198;2023-04-02T06:55:25;99466.97;;;34.14;9.31
50105;BME280;47690;39.202;-77.198;2023-04-02T06:58:02;99467.06;;;34.27;9.34
50105;BME280;47690;39.202;-77.198;2023-04-02T07:00:44;99467.97;;;34.06;9.27
50105;BME280;47690;39.202;-77.198;2023-04-02T07:03:28;99470.59;;;34.35;9.33
50105;BME280;47690;39.202;-77.198;2023-04-02T07:06:18;99477.84;;;34.47;8.83
50105;BME280;47690;39.202;-77.198;2023-04-02T07:09:08;99474.84;;;34.64;9.11
50105;BME280;47690;39.202;-77.198;2023-04-02T07:11:44;99478.75;;;34.19;9.38
50105;BME280;47690;39.202;-77.198;2023-04-02T07:14:19;99490.13;;;34.35;9.22
50105;BME280;47690;39.202;-77.198;2023-04-02T07:16:51;99489.09;;;34.36;9.57
50105;BME280;47690;39.202;-77.198;2023-04-02T07:19:22;99487.53;;;34.13;9.50
50105;BME280;47690;39.202;-77.198;2023-04-02T07:21:59;99493.06;;;34.12;9.26
50105;BME280;47690;39.202;-77.198;2023-04-02T07:24:41;99498.47;;;34.18;9.52
50105;BME280;47690;39.202;-77.198;2023-04-02T07:27:13;99489.28;;;34.28;9.27
50105;BME280;47690;39.202;-77.198;2023-04-02T07:29:46;99513.16;;;34.36;9.20
50105;BME280;47690;39.202;-77.198;2023-04-02T07:32:22;99509.78;;;34.21;9.35
50105;BME280;47690;39.202;-77.198;2023-04-02T07:34:56;99509.97;;;33.90;9.26
50105;BME280;47690;39.202;-77.198;2023-04-02T07:37:31;99504.56;;;33.84;9.54
50105;BME280;47690;39.202;-77.198;2023-04-02T07:40:01;99505.56;;;33.76;9.69
50105;BME280;47690;39.202;-77.198;2023-04-02T07:42:38;99508.41;;;33.74;9.77
50105;BME280;47690;39.202;-77.198;2023-04-02T07:45:11;99514.75;;;33.67;9.59
50105;BME280;47690;39.202;-77.198;2023-04-02T07:47:44;99517.78;;;33.63;9.83
50105;BME280;47690;39.202;-77.198;2023-04-02T07:50:17;99520.44;;;33.92;9.62
50105;BME280;47690;39.202;-77.198;2023-04-02T07:52:48;99532.91;;;33.78;9.58
50105;BME280;47690;39.202;-77.198;2023-04-02T07:55:19;99535.75;;;33.76;9.60
50105;BME280;47690;39.202;-77.198;2023-04-02T07:57:53;99531.88;;;33.79;9.21
50105;BME280;47690;39.202;-77.198;2023-04-02T08:00:32;99546.81;;;33.73;9.51
50105;BME280;47690;39.202;-77.198;2023-04-02T08:03:04;99554.66;;;33.75;9.33
50105;BME280;47690;39.202;-77.198;2023-04-02T08:05:41;99559.91;;;34.54;9.19
50105;BME280;47690;39.202;-77.198;2023-04-02T08:08:12;99556.19;;;34.48;8.83
50105;BME280;47690;39.202;-77.198;2023-04-02T08:10:45;99563.25;;;34.56;9.01
50105;BME280;47690;39.202;-77.198;2023-04-02T08:13:20;99563.94;;;34.71;8.80
50105;BME280;47690;39.202;-77.198;2023-04-02T08:16:04;99547.25;;;34.69;9.10
50105;BME280;47690;39.202;-77.198;2023-04-02T08:18:42;99564.25;;;34.97;8.86
50105;BME280;47690;39.202;-77.198;2023-04-02T08:21:17;99543.84;;;34.89;8.90
50105;BME280;47690;39.202;-77.198;2023-04-02T08:23:50;99550.94;;;34.62;9.01
50105;BME280;47690;39.202;-77.198;2023-04-02T08:26:21;99546.72;;;34.45;8.96
50105;BME280;47690;39.202;-77.198;2023-04-02T08:29:04;99546.00;;;34.30;9.24
50105;BME280;47690;39.202;-77.198;2023-04-02T08:31:35;99557.88;;;34.98;8.70
50105;BME280;47690;39.202;-77.198;2023-04-02T08:34:14;99569.22;;;34.58;8.99
50105;BME280;47690;39.202;-77.198;2023-04-02T08:36:46;99570.69;;;34.60;8.64
50105;BME280;47690;39.202;-77.198;2023-04-02T08:39:19;99577.75;;;34.46;8.98
50105;BME280;47690;39.202;-77.198;2023-04-02T08:48:12;99567.50;;;34.50;9.07
50105;BME280;47690;39.202;-77.198;2023-04-02T08:50:47;99561.88;;;34.67;8.97
50105;BME280;47690;39.202;-77.198;2023-04-02T08:53:22;99565.59;;;34.37;9.20
50105;BME280;47690;39.202;-77.198;2023-04-02T09:04:20;99583.03;;;34.62;8.97
50105;BME280;47690;39.202;-77.198;2023-04-02T09:07:01;99587.47;;;34.47;9.05
50105;BME280;47690;39.202;-77.198;2023-04-02T09:09:34;99589.81;;;34.29;9.30
50105;BME280;47690;39.202;-77.198;2023-04-02T09:12:17;99593.50;;;34.28;9.36
50105;BME280;47690;39.202;-77.198;2023-04-02T09:15:14;99592.38;;;34.44;9.07
50105;BME280;47690;39.202;-77.198;2023-04-02T09:18:14;99616.28;;;34.52;9.13
50105;BME280;47690;39.202;-77.198;2023-04-02T09:20:45;99613.84;;;34.29;9.00
50105;BME280;47690;39.202;-77.198;2023-04-02T09:23:25;99615.50;;;34.30;8.96
50105;BME280;47690;39.202;-77.198;2023-04-02T09:26:25;99628.47;;;34.55;9.27
50105;BME280;47690;39.202;-77.198;2023-04-02T09:34:42;99637.50;;;34.32;9.33
50105;BME280;47690;39.202;-77.198;2023-04-02T09:37:23;99654.91;;;34.21;9.51
50105;BME280;47690;39.202;-77.198;2023-04-02T09:40:25;99642.03;;;34.31;9.20
50105;BME280;47690;39.202;-77.198;2023-04-02T09:43:45;99652.31;;;34.06;9.27
50105;BME280;47690;39.202;-77.198;2023-04-02T09:49:04;99667.88;;;34.24;9.37
50105;BME280;47690;39.202;-77.198;2023-04-02T09:51:36;99674.16;;;34.10;9.44
50105;BME280;47690;39.202;-77.198;2023-04-02T09:54:16;99678.50;;;34.17;9.48
50105;BME280;47690;39.202;-77.198;2023-04-02T09:57:15;99682.31;;;34.30;9.42
50105;BME280;47690;39.202;-77.198;2023-04-02T10:00:21;99700.69;;;34.40;9.32
50105;BME280;47690;39.202;-77.198;2023-04-02T10:03:32;99696.63;;;34.44;9.30
50105;BME280;47690;39.202;-77.198;2023-04-02T10:06:14;99694.06;;;34.36;9.38
50105;BME280;47690;39.202;-77.198;2023-04-02T10:08:51;99713.06;;;34.19;9.32
50105;BME280;47690;39.202;-77.198;2023-04-02T10:11:34;99711.25;;;34.48;9.16
50105;BME280;47690;39.202;-77.198;2023-04-02T10:14:45;99712.44;;;35.03;8.90
50105;BME280;47690;39.202;-77.198;2023-04-02T10:17:26;99724.28;;;34.86;9.01
50105;BME280;47690;39.202;-77.198;2023-04-02T10:20:24;99720.72;;;35.50;8.55
50105;BME280;47690;39.202;-77.198;2023-04-02T10:23:17;99733.09;;;35.09;8.82
50105;BME280;47690;39.202;-77.198;2023-04-02T10:38:42;99771.41;;;34.37;9.46
50105;BME280;47690;39.202;-77.198;2023-04-02T10:42:00;99775.72;;;35.10;8.99
50105;BME280;47690;39.202;-77.198;2023-04-02T10:45:01;99785.09;;;35.35;8.93
50105;BME280;47690;39.202;-77.198;2023-04-02T10:48:12;99793.53;;;35.32;8.79
50105;BME280;47690;39.202;-77.198;2023-04-02T10:54:12;99791.41;;;34.92;8.94
50105;BME280;47690;39.202;-77.198;2023-04-02T10:56:52;99800.19;;;34.35;9.44
50105;BME280;47690;39.202;-77.198;2023-04-02T10:59:47;99816.56;;;34.69;9.05
50105;BME280;47690;39.202;-77.198;2023-04-02T11:05:56;99860.72;;;33.91;9.30
50105;BME280;47690;39.202;-77.198;2023-04-02T11:08:57;99856.22;;;33.61;9.44
50105;BME280;47690;39.202;-77.198;2023-04-02T11:11:54;99851.06;;;33.45;9.73
50105;BME280;47690;39.202;-77.198;2023-04-02T11:14:52;99864.97;;;33.85;9.26
50105;BME280;47690;39.202;-77.198;2023-04-02T11:17:24;99867.13;;;33.21;9.69
50105;BME280;47690;39.202;-77.198;2023-04-02T11:23:58;99888.53;;;34.49;8.87
50105;BME280;47690;39.202;-77.198;2023-04-02T11:26:45;99910.28;;;33.63;9.23
50105;BME280;47690;39.202;-77.198;2023-04-02T11:29:32;99924.03;;;34.57;8.91
50105;BME280;47690;39.202;-77.198;2023-04-02T11:35:44;99931.63;;;33.48;9.66
50105;BME280;47690;39.202;-77.198;2023-04-02T11:44:45;99933.06;;;33.13;9.34
50105;BME280;47690;39.202;-77.198;2023-04-02T11:47:22;99945.03;;;34.09;9.00
50105;BME280;47690;39.202;-77.198;2023-04-02T11:50:19;99940.75;;;33.31;9.26
50105;BME280;47690;39.202;-77.198;2023-04-02T11:53:36;99953.69;;;33.19;9.31
50105;BME280;47690;39.202;-77.198;2023-04-02T11:56:45;99953.22;;;33.15;9.23
50105;BME280;47690;39.202;-77.198;2023-04-02T12:00:00;99950.09;;;32.80;9.83
50105;BME280;47690;39.202;-77.198;2023-04-02T12:03:15;99961.41;;;32.59;9.72
50105;BME280;47690;39.202;-77.198;2023-04-02T12:09:23;100001.22;;;33.00;9.40
50105;BME280;47690;39.202;-77.198;2023-04-02T12:12:28;100021.59;;;33.40;9.10
50105;BME280;47690;39.202;-77.198;2023-04-02T12:15:05;100019.25;;;35.10;8.35
50105;BME280;47690;39.202;-77.198;2023-04-02T12:17:42;100023.50;;;33.31;9.39
50105;BME280;47690;39.202;-77.198;2023-04-02T12:20:22;100008.81;;;32.72;9.50
50105;BME280;47690;39.202;-77.198;2023-04-02T12:23:28;100020.81;;;32.76;9.66
50105;BME280;47690;39.202;-77.198;2023-04-02T12:26:22;100033.47;;;32.74;9.47
50105;BME280;47690;39.202;-77.198;2023-04-02T12:29:35;100053.34;;;32.71;9.84
50105;BME280;47690;39.202;-77.198;2023-04-02T12:32:36;100065.13;;;33.40;8.84
50105;BME280;47690;39.202;-77.198;2023-04-02T12:35:37;100072.59;;;33.91;8.62
50105;BME280;47690;39.202;-77.198;2023-04-02T12:38:57;100087.59;;;32.82;9.63
50105;BME280;47690;39.202;-77.198;2023-04-02T12:41:50;100095.81;;;32.73;9.88
50105;BME280;47690;39.202;-77.198;2023-04-02T12:44:32;100102.16;;;32.72;9.48
50105;BME280;47690;39.202;-77.198;2023-04-02T12:47:12;100095.78;;;32.81;9.56
50105;BME280;47690;39.202;-77.198;2023-04-02T12:49:48;100111.59;;;32.82;9.94
50105;BME280;47690;39.202;-77.198;2023-04-02T12:52:24;100106.28;;;32.82;9.59
50105;BME280;47690;39.202;-77.198;2023-04-02T12:55:22;100104.63;;;32.81;9.82
50105;BME280;47690;39.202;-77.198;2023-04-02T12:58:40;100103.78;;;32.81;9.39
50105;BME280;47690;39.202;-77.198;2023-04-02T13:01:58;100126.47;;;32.77;9.56
50105;BME280;47690;39.202;-77.198;2023-04-02T13:04:55;100130.31;;;32.74;8.82
50105;BME280;47690;39.202;-77.198;2023-04-02T13:07:36;100135.00;;;32.72;9.15
50105;BME280;47690;39.202;-77.198;2023-04-02T13:10:25;100122.13;;;32.84;8.90
50105;BME280;47690;39.202;-77.198;2023-04-02T13:13:15;100135.50;;;34.32;8.48
50105;BME280;47690;39.202;-77.198;2023-04-02T13:16:25;100156.84;;;34.02;8.19
50105;BME280;47690;39.202;-77.198;2023-04-02T13:19:32;100147.84;;;33.72;8.56
50105;BME280;47690;39.202;-77.198;2023-04-02T13:22:32;100141.47;;;33.58;8.51
50105;BME280;47690;39.202;-77.198;2023-04-02T13:25:08;100136.75;;;33.28;8.81
50105;BME280;47690;39.202;-77.198;2023-04-02T13:27:52;100132.09;;;33.30;8.64
50105;BME280;47690;39.202;-77.198;2023-04-02T13:30:36;100154.66;;;33.51;8.71
50105;BME280;47690;39.202;-77.198;2023-04-02T13:33:08;100169.97;;;33.57;8.41
50105;BME280;47690;39.202;-77.198;2023-04-02T13:35:44;100164.84;;;33.56;8.56
50105;BME280;47690;39.202;-77.198;2023-04-02T13:38:12;100162.50;;;33.53;8.31
50105;BME280;47690;39.202;-77.198;2023-04-02T13:40:49;100170.88;;;33.73;8.68
50105;BME280;47690;39.202;-77.198;2023-04-02T13:43:20;100161.22;;;33.72;8.38
50105;BME280;47690;39.202;-77.198;2023-04-02T13:45:53;100198.13;;;33.68;8.42
50105;BME280;47690;39.202;-77.198;2023-04-02T13:48:37;100182.38;;;33.50;8.31
50105;BME280;47690;39.202;-77.198;2023-04-02T13:51:18;100185.31;;;34.10;8.15
50105;BME280;47690;39.202;-77.198;2023-04-02T13:53:53;100200.75;;;34.00;8.23
50105;BME280;47690;39.202;-77.198;2023-04-02T13:56:32;100189.59;;;33.33;8.47
50105;BME280;47690;39.202;-77.198;2023-04-02T13:59:09;100186.69;;;33.59;8.12
50105;BME280;47690;39.202;-77.198;2023-04-02T14:01:44;100203.19;;;33.86;8.32
50105;BME280;47690;39.202;-77.198;2023-04-02T14:04:23;100198.06;;;34.00;8.32
50105;BME280;47690;39.202;-77.198;2023-04-02T14:10:34;100210.28;;;34.41;7.76
50105;BME280;47690;39.202;-77.198;2023-04-02T14:16:22;100207.84;;;34.16;7.65
50105;BME280;47690;39.202;-77.198;2023-04-02T14:20:09;100201.16;;;34.50;7.82
50105;BME280;47690;39.202;-77.198;2023-04-02T14:22:29;100220.97;;;34.64;7.94
50105;BME280;47690;39.202;-77.198;2023-04-02T14:25:25;100216.00;;;35.73;6.64
50105;BME280;47690;39.202;-77.198;2023-04-02T14:31:33;100234.59;;;34.31;7.80
50105;BME280;47690;39.202;-77.198;2023-04-02T14:43:04;100221.91;;;33.15;8.55
50105;BME280;47690;39.202;-77.198;2023-04-02T14:46:03;100229.47;;;33.34;8.31
50105;BME280;47690;39.202;-77.198;2023-04-02T14:51:38;100229.16;;;33.29;8.46
50105;BME280;47690;39.202;-77.198;2023-04-02T14:57:23;100248.16;;;33.34;8.04
50105;BME280;47690;39.202;-77.198;2023-04-02T15:03:36;100239.25;;;33.59;8.43
50105;BME280;47690;39.202;-77.198;2023-04-02T15:06:40;100230.69;;;33.63;8.40
50105;BME280;47690;39.202;-77.198;2023-04-02T15:12:41;100257.72;;;33.92;8.18
50105;BME280;47690;39.202;-77.198;2023-04-02T15:15:48;100253.22;;;33.92;7.67
50105;BME280;47690;39.202;-77.198;2023-04-02T15:18:25;100245.78;;;34.11;8.04
50105;BME280;47690;39.202;-77.198;2023-04-02T15:35:39;100242.09;;;35.19;7.27
50105;BME280;47690;39.202;-77.198;2023-04-02T15:55:44;100259.13;;;34.73;7.58
50105;BME280;47690;39.202;-77.198;2023-04-02T16:05:25;100255.91;;;35.68;6.70
50105;BME280;47690;39.202;-77.198;2023-04-02T16:11:23;100266.94;;;34.98;7.40
50105;BME280;47690;39.202;-77.198;2023-04-02T16:14:27;100267.25;;;36.29;6.49
50105;BME280;47690;39.202;-77.198;2023-04-02T16:20:16;100254.59;;;36.44;6.65
50105;BME280;47690;39.202;-77.198;2023-04-02T16:23:41;100242.16;;;36.65;6.65
50105;BME280;47690;39.202;-77.198;2023-04-02T16:29:37;100236.84;;;36.72;6.99
50105;BME280;47690;39.202;-77.198;2023-04-02T16:38:58;100247.34;;;35.58;7.55
50105;BME280;47690;39.202;-77.198;2023-04-02T16:41:59;100255.31;;;35.88;7.39
50105;BME280;47690;39.202;-77.198;2023-04-02T16:53:16;100256.47;;;35.63;7.36
50105;BME280;47690;39.202;-77.198;2023-04-02T17:10:45;100237.94;;;36.05;7.64
50105;BME280;47690;39.202;-77.198;2023-04-02T17:16:29;100231.81;;;35.90;7.61
50105;BME280;47690;39.202;-77.198;2023-04-02T17:18:57;100227.06;;;37.35;6.79
50105;BME280;47690;39.202;-77.198;2023-04-02T17:21:35;100230.44;;;36.66;7.34
50105;BME280;47690;39.202;-77.198;2023-04-02T17:24:25;100255.06;;;36.55;6.77
50105;BME280;47690;39.202;-77.198;2023-04-02T17:27:12;100249.03;;;36.24;7.24
50105;BME280;47690;39.202;-77.198;2023-04-02T17:29:48;100245.09;;;35.98;7.43
50105;BME280;47690;39.202;-77.198;2023-04-02T17:32:27;100237.69;;;36.00;7.18
50105;BME280;47690;39.202;-77.198;2023-04-02T17:41:47;100222.06;;;37.25;7.11
50105;BME280;47690;39.202;-77.198;2023-04-02T17:47:22;100217.81;;;37.02;7.03
50105;BME280;47690;39.202;-77.198;2023-04-02T17:56:02;100234.47;;;37.26;6.42
50105;BME280;47690;39.202;-77.198;2023-04-02T18:01:45;100225.19;;;37.28;6.96
50105;BME280;47690;39.202;-77.198;2023-04-02T18:10:34;100206.72;;;37.67;6.76
50105;BME280;47690;39.202;-77.198;2023-04-02T18:16:05;100200.66;;;37.45;6.81
50105;BME280;47690;39.202;-77.198;2023-04-02T18:19:10;100203.88;;;38.30;6.33
50105;BME280;47690;39.202;-77.198;2023-04-02T18:22:00;100200.78;;;38.33;6.27
50105;BME280;47690;39.202;-77.198;2023-04-02T18:36:21;100196.25;;;38.06;6.18
50105;BME280;47690;39.202;-77.198;2023-04-02T18:47:24;100202.78;;;37.63;6.23
50105;BME280;47690;39.202;-77.198;2023-04-02T18:52:46;100184.53;;;37.45;6.68
50105;BME280;47690;39.202;-77.198;2023-04-02T18:55:25;100185.22;;;37.74;6.29
50105;BME280;47690;39.202;-77.198;2023-04-02T18:58:09;100175.50;;;37.60;6.48
50105;BME280;47690;39.202;-77.198;2023-04-02T19:00:46;100179.63;;;37.62;6.36